createdAt,value
2022-09-22T00:02:32.413Z,7.33
2022-09-22T00:05:14.958Z,7.30
2022-09-22T00:07:55.413Z,7.26
2022-09-22T00:10:34.915Z,7.23
2022-09-22T00:13:16.759Z,7.19
2022-09-22T00:16:00.405Z,7.21
2022-09-22T00:18:40.881Z,7.15
2022-09-22T00:21:24.482Z,7.17
2022-09-22T00:24:07.843Z,7.14
2022-09-22T00:26:48.434Z,7.14
2022-09-22T00:29:29.891Z,7.14
2022-09-22T00:32:30.285Z,7.13
2022-09-22T00:35:10.448Z,7.13
2022-09-22T00:37:49.836Z,7.09
2022-09-22T00:40:29.720Z,7.08
2022-09-22T00:43:21.030Z,7.07
2022-09-22T00:46:06.220Z,7.06
2022-09-22T00:48:49.300Z,7.03
2022-09-22T00:51:31.802Z,7.00
2022-09-22T00:54:13.392Z,7.01
2022-09-22T00:56:55.234Z,6.98
2022-09-22T00:59:36.212Z,6.97
2022-09-22T01:02:15.801Z,6.94
2022-09-22T01:04:55.133Z,6.92
2022-09-22T01:07:35.296Z,6.89
2022-09-22T01:10:16.414Z,6.89
2022-09-22T01:13:03.075Z,6.86
2022-09-22T01:15:49.048Z,6.84
2022-09-22T01:18:36.631Z,6.83
2022-09-22T01:21:23.053Z,6.78
2022-09-22T01:24:45.942Z,6.76
2022-09-22T01:27:37.160Z,6.77
2022-09-22T01:30:23.839Z,6.75
2022-09-22T01:33:21.088Z,6.72
2022-09-22T01:36:11.338Z,6.69
2022-09-22T01:39:01.858Z,6.66
2022-09-22T01:41:48.132Z,6.65
2022-09-22T01:44:34.480Z,6.63
2022-09-22T01:47:18.066Z,6.60
2022-09-22T01:50:04.891Z,6.58
2022-09-22T01:52:45.687Z,6.58
2022-09-22T01:55:28.698Z,6.53
2022-09-22T01:58:11.122Z,6.52
2022-09-22T02:00:57.599Z,6.53
2022-09-22T02:03:39.940Z,6.50
2022-09-22T02:06:22.412Z,6.45
2022-09-22T02:09:04.946Z,6.45
2022-09-22T02:11:45.122Z,6.44
2022-09-22T02:14:24.916Z,6.43
2022-09-22T02:17:06.541Z,6.43
2022-09-22T02:19:47.970Z,6.42
2022-09-22T02:22:27.359Z,6.39
2022-09-22T02:25:19.054Z,6.36
2022-09-22T02:27:59.256Z,6.34
2022-09-22T02:30:38.982Z,6.32
2022-09-22T02:33:19.846Z,6.29
2022-09-22T02:36:10.329Z,6.31
2022-09-22T02:39:07.475Z,6.29
2022-09-22T02:42:00.391Z,6.26
2022-09-22T02:44:45.190Z,6.23
2022-09-22T02:47:29.905Z,6.19
2022-09-22T02:50:13.299Z,6.18
2022-09-22T02:53:13.667Z,6.17
2022-09-22T02:55:53.142Z,6.15
2022-09-22T02:58:33.095Z,6.15
2022-09-22T03:01:12.983Z,6.16
2022-09-22T03:03:53.308Z,6.15
2022-09-22T03:06:34.031Z,6.12
2022-09-22T03:09:16.561Z,6.08
2022-09-22T03:11:56.788Z,6.09
2022-09-22T03:14:36.609Z,6.10
2022-09-22T03:17:16.485Z,6.06
2022-09-22T03:19:56.169Z,6.03
2022-09-22T03:22:36.005Z,6.02
2022-09-22T03:25:14.639Z,6.01
2022-09-22T03:28:07.537Z,5.99
2022-09-22T03:30:47.233Z,5.99
2022-09-22T03:33:27.059Z,5.99
2022-09-22T03:36:07.571Z,6.00
2022-09-22T03:38:48.205Z,5.97
2022-09-22T03:41:28.282Z,5.95
2022-09-22T03:44:09.877Z,5.94
2022-09-22T03:46:49.223Z,5.90
2022-09-22T03:49:30.129Z,5.89
2022-09-22T03:52:12.449Z,5.86
2022-09-22T03:54:54.412Z,5.84
2022-09-22T03:57:34.894Z,5.81
2022-09-22T04:00:16.988Z,5.77
2022-09-22T04:02:57.525Z,5.76
2022-09-22T04:05:38.254Z,5.74
2022-09-22T04:08:20.184Z,5.72
2022-09-22T04:11:01.020Z,5.71
2022-09-22T04:13:45.955Z,5.69
2022-09-22T04:16:27.316Z,5.67
2022-09-22T04:19:09.869Z,5.66
2022-09-22T04:21:53.218Z,5.66
2022-09-22T04:24:37.176Z,5.64
2022-09-22T04:27:20.862Z,5.62
2022-09-22T04:30:01.713Z,5.61
2022-09-22T04:32:41.175Z,5.61
2022-09-22T04:35:21.048Z,5.58
2022-09-22T04:38:02.762Z,5.57
2022-09-22T04:40:46.921Z,5.54
2022-09-22T04:43:26.817Z,5.52
2022-09-22T04:46:09.786Z,5.52
2022-09-22T04:48:49.631Z,5.55
2022-09-22T04:51:29.413Z,5.54
2022-09-22T04:54:09.332Z,5.55
2022-09-22T04:56:49.004Z,5.54
2022-09-22T04:59:29.566Z,5.51
2022-09-22T05:02:10.267Z,5.52
2022-09-22T05:04:50.156Z,5.49
2022-09-22T05:07:29.818Z,5.47
2022-09-22T05:10:10.423Z,5.45
2022-09-22T05:12:51.117Z,5.48
2022-09-22T05:15:34.529Z,5.47
2022-09-22T05:18:15.972Z,5.46
2022-09-22T05:20:55.275Z,5.46
2022-09-22T05:23:34.104Z,5.45
2022-09-22T05:26:25.663Z,5.46
2022-09-22T05:29:06.284Z,5.47
2022-09-22T05:31:47.486Z,5.45
2022-09-22T05:34:27.707Z,5.45
2022-09-22T05:37:09.542Z,5.46
2022-09-22T05:39:48.936Z,5.44
2022-09-22T05:42:30.708Z,5.43
2022-09-22T05:45:12.461Z,5.46
2022-09-22T05:47:50.799Z,5.47
2022-09-22T05:50:31.470Z,5.47
2022-09-22T05:53:12.178Z,5.48
2022-09-22T05:55:52.575Z,5.47
2022-09-22T05:58:33.495Z,5.50
2022-09-22T06:01:13.844Z,5.52
2022-09-22T06:03:53.824Z,5.53
2022-09-22T06:06:35.432Z,5.55
2022-09-22T06:09:14.835Z,5.58
2022-09-22T06:11:54.624Z,5.61
2022-09-22T06:14:34.422Z,5.65
2022-09-22T06:17:14.496Z,5.66
2022-09-22T06:19:56.049Z,5.67
2022-09-22T06:22:37.463Z,5.74
2022-09-22T06:25:17.409Z,5.76
2022-09-22T06:28:04.841Z,5.82
2022-09-22T06:30:44.462Z,5.86
2022-09-22T06:33:24.439Z,5.89
2022-09-22T06:36:07.057Z,5.97
2022-09-22T06:38:47.138Z,6.01
2022-09-22T06:41:27.126Z,6.06
2022-09-22T06:44:15.310Z,6.13
2022-09-22T06:46:54.502Z,6.20
2022-09-22T06:49:35.408Z,6.24
2022-09-22T06:52:16.731Z,6.31
2022-09-22T06:55:01.215Z,6.38
2022-09-22T06:57:41.700Z,6.44
2022-09-22T07:00:24.317Z,6.49
2022-09-22T07:03:07.053Z,6.57
2022-09-22T07:05:54.840Z,6.66
2022-09-22T07:08:38.169Z,6.77
2022-09-22T07:11:23.454Z,6.84
2022-09-22T07:14:04.088Z,6.90
2022-09-22T07:16:45.458Z,6.98
2022-09-22T07:19:25.856Z,7.04
2022-09-22T07:22:06.752Z,7.14
2022-09-22T07:25:02.112Z,7.25
2022-09-22T07:27:43.860Z,7.40
2022-09-22T07:30:26.184Z,7.50
2022-09-22T07:33:09.269Z,7.62
2022-09-22T07:35:49.210Z,7.78
2022-09-22T07:38:33.603Z,7.93
2022-09-22T07:41:14.119Z,8.01
2022-09-22T07:43:56.100Z,8.13
2022-09-22T07:46:36.502Z,8.29
2022-09-22T07:49:17.600Z,8.40
2022-09-22T07:51:58.116Z,8.47
2022-09-22T07:54:39.723Z,8.53
2022-09-22T07:57:19.883Z,8.63
2022-09-22T08:00:00.357Z,8.71
2022-09-22T08:02:41.070Z,8.86
2022-09-22T08:05:24.599Z,8.98
2022-09-22T08:08:05.928Z,9.12
2022-09-22T08:10:45.999Z,9.27
2022-09-22T08:13:25.796Z,9.46
2022-09-22T08:16:10.264Z,9.59
2022-09-22T08:18:54.783Z,10.01
2022-09-22T08:21:35.186Z,10.18
2022-09-22T08:24:15.569Z,10.32
2022-09-22T08:26:57.946Z,10.49
2022-09-22T08:29:38.387Z,10.69
2022-09-22T08:32:19.209Z,10.96
2022-09-22T08:35:00.563Z,11.16
2022-09-22T08:37:43.723Z,11.47
2022-09-22T08:40:25.248Z,11.79
2022-09-22T08:43:05.079Z,12.14
2022-09-22T08:45:46.180Z,12.47
2022-09-22T08:48:45.635Z,12.86
2022-09-22T08:51:48.842Z,13.21
2022-09-22T08:55:17.167Z,13.61
2022-09-22T08:58:06.531Z,13.97
2022-09-22T09:00:52.379Z,14.22
2022-09-22T09:03:44.332Z,14.49
2022-09-22T09:06:30.625Z,14.80
2022-09-22T09:09:34.940Z,15.10
2022-09-22T09:12:50.167Z,15.62
2022-09-22T09:15:47.311Z,15.91
2022-09-22T09:18:29.069Z,16.29
2022-09-22T09:21:14.443Z,16.74
2022-09-22T09:27:08.848Z,17.22
2022-09-22T09:29:57.432Z,17.69
2022-09-22T09:32:43.795Z,18.00
2022-09-22T09:35:26.449Z,17.93
2022-09-22T09:38:09.902Z,18.17
2022-09-22T09:40:56.774Z,18.54
2022-09-22T09:43:42.637Z,18.92
2022-09-22T09:46:36.887Z,19.48
2022-09-22T09:49:21.151Z,19.40
2022-09-22T09:52:02.861Z,20.00
2022-09-22T09:54:45.743Z,20.11
2022-09-22T09:57:29.544Z,19.88
2022-09-22T10:00:34.343Z,20.53
2022-09-22T10:03:17.458Z,20.85
2022-09-22T10:06:00.112Z,20.38
2022-09-22T10:08:45.280Z,21.13
2022-09-22T10:11:32.317Z,21.18
2022-09-22T10:14:20.401Z,21.44
2022-09-22T10:17:01.138Z,21.09
2022-09-22T10:19:40.664Z,21.69
2022-09-22T10:22:36.508Z,22.15
2022-09-22T10:25:27.930Z,22.29
2022-09-22T10:28:14.961Z,22.22
2022-09-22T10:31:00.315Z,21.61
2022-09-22T10:33:55.182Z,21.79
2022-09-22T10:36:37.796Z,21.60
2022-09-22T10:39:20.117Z,22.28
2022-09-22T10:42:01.431Z,21.99
2022-09-22T10:44:45.278Z,22.39
2022-09-22T10:47:33.847Z,22.44
2022-09-22T10:50:37.235Z,22.54
2022-09-22T10:53:54.317Z,23.00
2022-09-22T10:56:38.482Z,23.02
2022-09-22T10:59:28.623Z,22.73
2022-09-22T11:02:35.557Z,21.73
2022-09-22T11:05:42.281Z,22.09
2022-09-22T11:08:41.540Z,22.81
2022-09-22T11:11:43.388Z,23.03
2022-09-22T11:14:35.329Z,23.00
2022-09-22T11:17:26.568Z,22.76
2022-09-22T11:20:31.898Z,22.16
2022-09-22T11:23:25.538Z,22.01
2022-09-22T11:26:35.889Z,22.32
2022-09-22T11:29:50.190Z,22.35
2022-09-22T11:32:39.220Z,22.23
2022-09-22T11:35:28.913Z,22.41
2022-09-22T11:38:18.902Z,22.33
2022-09-22T11:41:15.531Z,22.58
2022-09-22T11:44:06.463Z,22.70
2022-09-22T11:46:55.761Z,22.62
2022-09-22T11:49:45.096Z,22.72
2022-09-22T11:52:33.374Z,21.97
2022-09-22T11:55:23.399Z,22.01
2022-09-22T11:58:08.184Z,22.01
2022-09-22T12:00:54.650Z,22.47
2022-09-22T12:03:39.988Z,22.94
2022-09-22T12:06:26.174Z,22.75
2022-09-22T12:09:13.602Z,23.09
2022-09-22T12:11:53.694Z,23.38
2022-09-22T12:14:35.596Z,23.14
2022-09-22T12:17:22.877Z,23.45
2022-09-22T12:20:14.762Z,23.04
2022-09-22T12:23:15.599Z,23.45
2022-09-22T12:25:56.670Z,23.30
2022-09-22T12:28:39.496Z,23.18
2022-09-22T12:31:20.888Z,22.58
2022-09-22T12:34:01.478Z,22.43
2022-09-22T12:36:41.209Z,22.29
2022-09-22T12:39:20.932Z,21.75
2022-09-22T12:42:05.311Z,22.26
2022-09-22T12:44:46.704Z,22.38
2022-09-22T12:47:32.089Z,22.49
2022-09-22T12:50:35.926Z,22.60
2022-09-22T12:53:27.548Z,23.10
2022-09-22T12:56:44.284Z,22.69
2022-09-22T12:59:59.649Z,22.76
2022-09-22T13:02:44.434Z,21.99
2022-09-22T13:05:34.712Z,21.60
2022-09-22T13:08:24.373Z,21.61
2022-09-22T13:11:05.214Z,21.05
2022-09-22T13:13:46.705Z,21.62
2022-09-22T13:16:35.535Z,21.55
2022-09-22T13:19:14.786Z,21.07
2022-09-22T13:21:56.740Z,21.11
2022-09-22T13:24:37.975Z,21.19
2022-09-22T13:27:16.148Z,21.18
2022-09-22T13:30:03.458Z,20.82
2022-09-22T13:32:49.937Z,20.12
2022-09-22T13:35:33.066Z,20.43
2022-09-22T13:38:14.373Z,20.52
2022-09-22T13:40:54.164Z,20.31
2022-09-22T13:43:37.798Z,20.31
2022-09-22T13:46:24.039Z,20.37
2022-09-22T13:49:07.624Z,20.34
2022-09-22T13:51:49.373Z,20.06
2022-09-22T13:54:32.301Z,20.15
2022-09-22T13:57:20.928Z,19.80
2022-09-22T14:00:05.713Z,19.45
2022-09-22T14:02:48.083Z,19.39
2022-09-22T14:05:31.333Z,19.61
2022-09-22T14:08:20.181Z,19.41
2022-09-22T14:11:02.258Z,18.85
2022-09-22T14:13:45.535Z,18.80
2022-09-22T14:16:31.982Z,18.46
2022-09-22T14:19:16.093Z,18.59
2022-09-22T14:22:01.880Z,18.22
2022-09-22T14:24:44.737Z,18.19
2022-09-22T14:27:28.672Z,18.40
2022-09-22T14:30:16.331Z,18.40
2022-09-22T14:32:58.307Z,18.45
2022-09-22T14:35:38.547Z,18.40
2022-09-22T14:38:21.353Z,18.42
2022-09-22T14:41:02.764Z,18.34
2022-09-22T14:43:54.541Z,18.32
2022-09-22T14:46:41.621Z,18.34
2022-09-22T14:49:39.415Z,18.10
2022-09-22T14:52:29.850Z,17.91
2022-09-22T14:55:15.632Z,17.89
2022-09-22T14:57:56.477Z,17.85
2022-09-22T15:00:53.293Z,17.71
2022-09-22T15:03:32.120Z,17.77
2022-09-22T15:06:12.948Z,17.70
2022-09-22T15:08:53.460Z,17.56
2022-09-22T15:11:49.290Z,17.42
2022-09-22T15:14:43.607Z,17.45
2022-09-22T15:17:56.297Z,17.39
2022-09-22T15:20:42.586Z,17.23
2022-09-22T15:23:28.269Z,17.14
2022-09-22T15:26:07.426Z,17.16
2022-09-22T15:28:48.850Z,17.03
2022-09-22T15:31:29.854Z,16.94
2022-09-22T15:34:30.082Z,17.09
2022-09-22T15:37:13.909Z,17.02
2022-09-22T15:39:54.587Z,17.03
2022-09-22T15:42:35.106Z,17.00
2022-09-22T15:45:17.785Z,16.97
2022-09-22T15:47:57.384Z,17.00
2022-09-22T15:50:37.199Z,17.01
2022-09-22T15:53:19.047Z,16.90
2022-09-22T15:56:03.506Z,16.94
2022-09-22T15:58:44.020Z,16.91
2022-09-22T16:01:26.896Z,16.87
2022-09-22T16:04:08.834Z,16.81
2022-09-22T16:06:54.141Z,16.74
2022-09-22T16:09:33.443Z,16.70
2022-09-22T16:12:15.384Z,16.75
2022-09-22T16:14:55.023Z,16.66
2022-09-22T16:17:36.016Z,16.69
2022-09-22T16:20:17.440Z,16.61
2022-09-22T16:22:57.390Z,16.57
2022-09-22T16:25:40.095Z,16.53
2022-09-22T16:28:20.091Z,16.53
2022-09-22T16:31:03.971Z,16.49
2022-09-22T16:33:44.940Z,16.42
2022-09-22T16:36:25.996Z,16.37
2022-09-22T16:39:07.888Z,16.22
2022-09-22T16:41:47.526Z,16.19
2022-09-22T16:44:40.468Z,16.10
2022-09-22T16:47:22.764Z,16.00
2022-09-22T16:50:23.062Z,15.90
2022-09-22T16:53:03.955Z,15.81
2022-09-22T16:55:49.430Z,15.69
2022-09-22T16:58:28.511Z,15.57
2022-09-22T17:01:10.310Z,15.48
2022-09-22T17:03:53.698Z,15.36
2022-09-22T17:06:38.159Z,15.23
2022-09-22T17:09:18.878Z,15.14
2022-09-22T17:11:59.171Z,14.94
2022-09-22T17:14:41.360Z,14.79
2022-09-22T17:17:21.234Z,14.65
2022-09-22T17:20:01.179Z,14.55
2022-09-22T17:22:41.040Z,14.44
2022-09-22T17:25:20.643Z,14.35
2022-09-22T17:28:00.490Z,14.30
2022-09-22T17:30:40.359Z,14.17
2022-09-22T17:33:20.018Z,14.05
2022-09-22T17:36:00.597Z,13.94
2022-09-22T17:38:54.864Z,13.85
2022-09-22T17:41:34.865Z,13.75
2022-09-22T17:44:18.778Z,13.65
2022-09-22T17:47:16.348Z,13.56
2022-09-22T17:50:14.547Z,13.41
2022-09-22T17:53:11.363Z,13.35
2022-09-22T17:55:52.947Z,13.20
2022-09-22T17:58:32.765Z,13.11
2022-09-22T18:01:12.316Z,13.03
2022-09-22T18:03:52.369Z,12.93
2022-09-22T18:06:33.957Z,12.87
2022-09-22T18:09:13.326Z,12.78
2022-09-22T18:11:55.284Z,12.69
2022-09-22T18:14:35.548Z,12.54
2022-09-22T18:17:18.972Z,12.52
2022-09-22T18:20:01.244Z,12.46
2022-09-22T18:22:41.301Z,12.39
2022-09-22T18:25:23.872Z,12.28
2022-09-22T18:28:03.799Z,12.20
2022-09-22T18:30:43.203Z,12.20
2022-09-22T18:33:24.788Z,12.18
2022-09-22T18:36:04.728Z,12.13
2022-09-22T18:39:28.661Z,12.05
2022-09-22T18:42:11.102Z,12.03
2022-09-22T18:44:51.332Z,12.01
2022-09-22T18:47:30.931Z,11.95
2022-09-22T18:50:11.896Z,11.94
2022-09-22T18:52:56.639Z,11.91
2022-09-22T18:55:36.784Z,11.89
2022-09-22T18:58:16.636Z,11.85
2022-09-22T19:00:56.545Z,11.82
2022-09-22T19:03:38.225Z,11.80
2022-09-22T19:06:18.820Z,11.78
2022-09-22T19:08:59.085Z,11.73
2022-09-22T19:11:38.788Z,11.69
2022-09-22T19:14:21.038Z,11.65
2022-09-22T19:17:04.018Z,11.60
2022-09-22T19:19:46.578Z,11.56
2022-09-22T19:22:27.187Z,11.53
2022-09-22T19:25:08.504Z,11.46
2022-09-22T19:27:52.242Z,11.41
2022-09-22T19:30:31.944Z,11.38
2022-09-22T19:33:11.716Z,11.33
2022-09-22T19:35:51.466Z,11.28
2022-09-22T19:38:31.352Z,11.25
2022-09-22T19:41:12.178Z,11.20
2022-09-22T19:44:05.319Z,11.16
2022-09-22T19:46:48.437Z,11.09
2022-09-22T19:49:29.548Z,11.04
2022-09-22T19:52:10.178Z,10.99
2022-09-22T19:54:50.229Z,10.95
2022-09-22T19:57:30.273Z,10.92
2022-09-22T20:00:11.521Z,10.86
2022-09-22T20:02:57.952Z,10.85
2022-09-22T20:05:40.249Z,10.76
2022-09-22T20:08:22.604Z,10.74
2022-09-22T20:11:23.013Z,10.66
2022-09-22T20:14:22.109Z,10.62
2022-09-22T20:17:03.132Z,10.57
2022-09-22T20:19:55.224Z,10.52
2022-09-22T20:22:41.319Z,10.47
2022-09-22T20:25:24.593Z,10.43
2022-09-22T20:28:04.570Z,10.38
2022-09-22T20:30:45.080Z,10.35
2022-09-22T20:33:25.289Z,10.31
2022-09-22T20:36:06.881Z,10.26
2022-09-22T20:38:46.183Z,10.22
2022-09-22T20:41:39.409Z,10.20
2022-09-22T20:44:18.816Z,10.16
2022-09-22T20:47:00.591Z,10.11
2022-09-22T20:49:41.337Z,10.07
2022-09-22T20:52:24.860Z,10.03
2022-09-22T20:55:04.676Z,10.00
2022-09-22T20:57:44.392Z,9.95
2022-09-22T21:00:24.096Z,9.93
2022-09-22T21:03:06.191Z,9.88
2022-09-22T21:05:49.133Z,9.87
2022-09-22T21:08:46.391Z,9.82
2022-09-22T21:11:27.755Z,9.83
2022-09-22T21:14:09.691Z,9.77
2022-09-22T21:16:51.352Z,9.78
2022-09-22T21:19:32.925Z,9.74
2022-09-22T21:22:15.099Z,9.73
2022-09-22T21:24:54.742Z,9.73
2022-09-22T21:27:34.162Z,9.74
2022-09-22T21:30:14.483Z,9.73
2022-09-22T21:33:14.508Z,9.75
2022-09-22T21:36:02.719Z,9.74
2022-09-22T21:38:42.552Z,9.75
2022-09-22T21:41:23.758Z,9.77
2022-09-22T21:44:05.805Z,9.77
2022-09-22T21:46:47.608Z,9.78
2022-09-22T21:49:29.800Z,9.79
2022-09-22T21:52:09.150Z,9.80
2022-09-22T21:54:49.269Z,9.80
2022-09-22T21:57:28.804Z,9.80
2022-09-22T22:00:09.861Z,9.81
2022-09-22T22:03:09.234Z,9.81
2022-09-22T22:05:49.712Z,9.83
2022-09-22T22:08:34.943Z,9.84
2022-09-22T22:11:21.090Z,9.85
2022-09-22T22:14:03.154Z,9.85
2022-09-22T22:16:44.171Z,9.84
2022-09-22T22:19:26.768Z,9.85
2022-09-22T22:22:07.135Z,9.85
2022-09-22T22:24:47.652Z,9.86
2022-09-22T22:27:28.549Z,9.83
2022-09-22T22:30:09.915Z,9.83
2022-09-22T22:32:48.573Z,9.86
2022-09-22T22:35:27.695Z,9.87
2022-09-22T22:38:06.277Z,9.86
2022-09-22T22:40:46.735Z,9.88
2022-09-22T22:43:29.367Z,9.89
2022-09-22T22:46:10.061Z,9.90
2022-09-22T22:48:50.442Z,9.93
2022-09-22T22:51:31.924Z,9.94
2022-09-22T22:54:12.053Z,9.94
2022-09-22T22:56:52.566Z,9.95
2022-09-22T22:59:34.374Z,9.91
2022-09-22T23:02:13.789Z,9.91
2022-09-22T23:04:54.160Z,9.94
2022-09-22T23:07:33.382Z,9.95
2022-09-22T23:10:13.500Z,9.95
2022-09-22T23:12:55.917Z,9.96
2022-09-22T23:15:36.075Z,10.00
2022-09-22T23:18:20.640Z,10.00
2022-09-22T23:21:00.615Z,10.02
2022-09-22T23:23:41.698Z,10.03
2022-09-22T23:26:24.697Z,10.04
2022-09-22T23:29:04.899Z,10.01
2022-09-22T23:31:44.448Z,10.04
2022-09-22T23:34:26.269Z,10.03
2022-09-22T23:37:05.745Z,10.00
2022-09-22T23:39:47.499Z,10.00
2022-09-22T23:42:26.852Z,9.99
2022-09-22T23:45:08.253Z,9.96
2022-09-22T23:47:48.915Z,9.89
2022-09-22T23:50:29.500Z,9.90
2022-09-22T23:53:09.340Z,9.84
2022-09-22T23:55:49.812Z,9.80
2022-09-22T23:58:29.060Z,9.77
